sensor_id;sensor_type;location;lat;lon;timestamp;temperature;humidity
38209;DHT22;24016;52.102;11.584;2022-09-09T00:00:36;12.70;99.90
38209;DHT22;24016;52.102;11.584;2022-09-09T00:03:07;12.60;99.90
38209;DHT22;24016;52.102;11.584;2022-09-09T00:08:43;12.60;99.90
38209;DHT22;24016;52.102;11.584;2022-09-09T00:11:13;12.60;99.90
38209;DHT22;24016;52.102;11.584;2022-09-09T00:13:46;12.60;99.90
38209;DHT22;24016;52.102;11.584;2022-09-09T00:16:20;12.50;99.90
38209;DHT22;24016;52.102;11.584;2022-09-09T00:18:57;12.50;99.90
38209;DHT22;24016;52.102;11.584;2022-09-09T00:21:43;12.50;99.90
38209;DHT22;24016;52.102;11.584;2022-09-09T00:24:23;12.40;99.90
38209;DHT22;24016;52.102;11.584;2022-09-09T00:26:55;12.40;99.90
38209;DHT22;24016;52.102;11.584;2022-09-09T00:29:56;12.40;99.90
38209;DHT22;24016;52.102;11.584;2022-09-09T00:32:20;12.40;99.90
38209;DHT22;24016;52.102;11.584;2022-09-09T00:34:55;12.40;99.90
38209;DHT22;24016;52.102;11.584;2022-09-09T00:37:22;12.30;99.90
38209;DHT22;24016;52.102;11.584;2022-09-09T00:39:52;12.30;99.90
38209;DHT22;24016;52.102;11.584;2022-09-09T00:42:38;12.40;99.90
38209;DHT22;24016;52.102;11.584;2022-09-09T00:48:09;12.30;99.90
38209;DHT22;24016;52.102;11.584;2022-09-09T00:56:26;12.20;99.90
38209;DHT22;24016;52.102;11.584;2022-09-09T00:59:20;12.20;99.90
38209;DHT22;24016;52.102;11.584;2022-09-09T01:01:49;12.10;99.90
38209;DHT22;24016;52.102;11.584;2022-09-09T01:04:27;12.10;99.90
38209;DHT22;24016;52.102;11.584;2022-09-09T01:07:03;12.10;99.90
38209;DHT22;24016;52.102;11.584;2022-09-09T01:09:56;12.10;99.90
38209;DHT22;24016;52.102;11.584;2022-09-09T01:12:46;12.10;99.90
38209;DHT22;24016;52.102;11.584;2022-09-09T01:15:22;12.10;99.90
38209;DHT22;24016;52.102;11.584;2022-09-09T01:28:30;12.10;99.90
38209;DHT22;24016;52.102;11.584;2022-09-09T01:36:23;12.10;99.90
38209;DHT22;24016;52.102;11.584;2022-09-09T01:38:49;12.10;99.90
38209;DHT22;24016;52.102;11.584;2022-09-09T01:41:15;12.10;99.90
38209;DHT22;24016;52.102;11.584;2022-09-09T01:43:41;12.10;99.90
38209;DHT22;24016;52.102;11.584;2022-09-09T01:46:07;12.00;99.90
38209;DHT22;24016;52.102;11.584;2022-09-09T01:48:33;12.00;99.90
38209;DHT22;24016;52.102;11.584;2022-09-09T01:50:58;12.00;99.90
38209;DHT22;24016;52.102;11.584;2022-09-09T01:53:24;12.00;99.90
38209;DHT22;24016;52.102;11.584;2022-09-09T02:03:57;12.00;99.90
38209;DHT22;24016;52.102;11.584;2022-09-09T02:06:34;12.00;99.90
38209;DHT22;24016;52.102;11.584;2022-09-09T02:09:03;11.90;99.90
38209;DHT22;24016;52.102;11.584;2022-09-09T02:11:30;11.90;99.90
38209;DHT22;24016;52.102;11.584;2022-09-09T02:14:19;12.00;99.90
38209;DHT22;24016;52.102;11.584;2022-09-09T02:17:03;12.00;99.90
38209;DHT22;24016;52.102;11.584;2022-09-09T02:19:44;12.00;99.90
38209;DHT22;24016;52.102;11.584;2022-09-09T02:22:11;12.00;99.90
38209;DHT22;24016;52.102;11.584;2022-09-09T02:24:39;11.90;99.90
38209;DHT22;24016;52.102;11.584;2022-09-09T02:27:06;11.90;99.90
38209;DHT22;24016;52.102;11.584;2022-09-09T02:29:37;11.90;99.90
38209;DHT22;24016;52.102;11.584;2022-09-09T02:32:06;11.80;99.90
38209;DHT22;24016;52.102;11.584;2022-09-09T02:34:36;11.80;99.90
38209;DHT22;24016;52.102;11.584;2022-09-09T02:37:06;11.70;99.90
38209;DHT22;24016;52.102;11.584;2022-09-09T02:39:33;11.70;99.90
38209;DHT22;24016;52.102;11.584;2022-09-09T02:41:59;11.80;99.90
38209;DHT22;24016;52.102;11.584;2022-09-09T02:44:25;11.80;99.90
38209;DHT22;24016;52.102;11.584;2022-09-09T02:52:14;11.80;99.90
38209;DHT22;24016;52.102;11.584;2022-09-09T02:54:43;11.70;99.90
38209;DHT22;24016;52.102;11.584;2022-09-09T02:57:16;11.70;99.90
38209;DHT22;24016;52.102;11.584;2022-09-09T02:59:44;11.70;99.90
38209;DHT22;24016;52.102;11.584;2022-09-09T03:02:10;11.70;99.90
38209;DHT22;24016;52.102;11.584;2022-09-09T03:04:37;11.70;99.90
38209;DHT22;24016;52.102;11.584;2022-09-09T03:07:03;11.60;99.90
38209;DHT22;24016;52.102;11.584;2022-09-09T03:09:29;11.60;99.90
38209;DHT22;24016;52.102;11.584;2022-09-09T03:11:55;11.70;99.90
38209;DHT22;24016;52.102;11.584;2022-09-09T03:14:22;11.70;99.90
38209;DHT22;24016;52.102;11.584;2022-09-09T03:16:51;11.70;99.90
38209;DHT22;24016;52.102;11.584;2022-09-09T03:19:17;11.70;99.90
38209;DHT22;24016;52.102;11.584;2022-09-09T03:21:44;11.60;99.90
38209;DHT22;24016;52.102;11.584;2022-09-09T03:24:10;11.60;99.90
38209;DHT22;24016;52.102;11.584;2022-09-09T03:26:36;11.60;99.90
38209;DHT22;24016;52.102;11.584;2022-09-09T03:29:03;11.60;99.90
38209;DHT22;24016;52.102;11.584;2022-09-09T03:31:32;11.60;99.90
38209;DHT22;24016;52.102;11.584;2022-09-09T03:33:58;11.60;99.90
38209;DHT22;24016;52.102;11.584;2022-09-09T03:36:24;11.50;99.90
38209;DHT22;24016;52.102;11.584;2022-09-09T03:38:51;11.50;99.90
38209;DHT22;24016;52.102;11.584;2022-09-09T03:41:17;11.50;99.90
38209;DHT22;24016;52.102;11.584;2022-09-09T03:43:43;11.50;99.90
38209;DHT22;24016;52.102;11.584;2022-09-09T03:46:08;11.50;99.90
38209;DHT22;24016;52.102;11.584;2022-09-09T03:48:34;11.50;99.90
38209;DHT22;24016;52.102;11.584;2022-09-09T03:50:59;11.50;99.90
38209;DHT22;24016;52.102;11.584;2022-09-09T03:53:27;11.50;99.90
38209;DHT22;24016;52.102;11.584;2022-09-09T03:55:55;11.60;99.90
38209;DHT22;24016;52.102;11.584;2022-09-09T03:58:22;11.50;99.90
38209;DHT22;24016;52.102;11.584;2022-09-09T04:00:54;11.50;99.90
38209;DHT22;24016;52.102;11.584;2022-09-09T04:03:20;11.50;99.90
38209;DHT22;24016;52.102;11.584;2022-09-09T04:05:48;11.60;99.90
38209;DHT22;24016;52.102;11.584;2022-09-09T04:08:14;11.60;99.90
38209;DHT22;24016;52.102;11.584;2022-09-09T04:10:40;11.60;99.90
38209;DHT22;24016;52.102;11.584;2022-09-09T04:13:05;11.60;99.90
38209;DHT22;24016;52.102;11.584;2022-09-09T04:15:31;11.60;99.90
38209;DHT22;24016;52.102;11.584;2022-09-09T04:17:57;11.60;99.90
38209;DHT22;24016;52.102;11.584;2022-09-09T04:20:23;11.60;99.90
38209;DHT22;24016;52.102;11.584;2022-09-09T04:22:49;11.60;99.90
38209;DHT22;24016;52.102;11.584;2022-09-09T04:25:14;11.60;99.90
38209;DHT22;24016;52.102;11.584;2022-09-09T04:27:40;11.60;99.90
38209;DHT22;24016;52.102;11.584;2022-09-09T04:30:06;11.60;99.90
38209;DHT22;24016;52.102;11.584;2022-09-09T04:32:33;11.60;99.90
38209;DHT22;24016;52.102;11.584;2022-09-09T04:34:59;11.60;99.90
38209;DHT22;24016;52.102;11.584;2022-09-09T04:37:24;11.60;99.90
38209;DHT22;24016;52.102;11.584;2022-09-09T04:39:50;11.60;99.90
38209;DHT22;24016;52.102;11.584;2022-09-09T04:42:16;11.70;99.90
38209;DHT22;24016;52.102;11.584;2022-09-09T04:44:43;11.70;99.90
38209;DHT22;24016;52.102;11.584;2022-09-09T04:47:09;11.70;99.90
38209;DHT22;24016;52.102;11.584;2022-09-09T04:49:35;11.60;99.90
38209;DHT22;24016;52.102;11.584;2022-09-09T04:52:01;11.60;99.90
38209;DHT22;24016;52.102;11.584;2022-09-09T04:54:26;11.60;99.90
38209;DHT22;24016;52.102;11.584;2022-09-09T04:56:53;11.60;99.90
38209;DHT22;24016;52.102;11.584;2022-09-09T04:59:18;11.60;99.90
38209;DHT22;24016;52.102;11.584;2022-09-09T05:01:44;11.70;99.90
38209;DHT22;24016;52.102;11.584;2022-09-09T05:04:09;11.80;99.90
38209;DHT22;24016;52.102;11.584;2022-09-09T05:06:35;12.00;99.90
38209;DHT22;24016;52.102;11.584;2022-09-09T05:09:01;12.10;99.90
38209;DHT22;24016;52.102;11.584;2022-09-09T05:11:29;12.20;99.90
38209;DHT22;24016;52.102;11.584;2022-09-09T05:13:56;12.40;99.90
38209;DHT22;24016;52.102;11.584;2022-09-09T05:16:22;12.40;99.90
38209;DHT22;24016;52.102;11.584;2022-09-09T05:18:48;12.50;99.90
38209;DHT22;24016;52.102;11.584;2022-09-09T05:21:17;12.60;99.90
38209;DHT22;24016;52.102;11.584;2022-09-09T05:23:44;12.60;99.90
38209;DHT22;24016;52.102;11.584;2022-09-09T05:26:13;12.70;99.90
38209;DHT22;24016;52.102;11.584;2022-09-09T05:28:39;12.80;99.90
38209;DHT22;24016;52.102;11.584;2022-09-09T05:31:07;12.80;99.90
38209;DHT22;24016;52.102;11.584;2022-09-09T05:33:40;12.90;99.90
38209;DHT22;24016;52.102;11.584;2022-09-09T05:36:12;13.00;99.90
38209;DHT22;24016;52.102;11.584;2022-09-09T05:38:41;13.10;99.90
38209;DHT22;24016;52.102;11.584;2022-09-09T05:41:07;13.20;99.90
38209;DHT22;24016;52.102;11.584;2022-09-09T05:43:33;13.30;99.90
38209;DHT22;24016;52.102;11.584;2022-09-09T05:46:05;13.40;99.90
38209;DHT22;24016;52.102;11.584;2022-09-09T05:48:32;13.40;99.90
38209;DHT22;24016;52.102;11.584;2022-09-09T05:51:01;13.50;99.90
38209;DHT22;24016;52.102;11.584;2022-09-09T05:53:28;13.60;99.90
38209;DHT22;24016;52.102;11.584;2022-09-09T05:56:05;13.70;99.90
38209;DHT22;24016;52.102;11.584;2022-09-09T05:58:32;13.80;99.90
38209;DHT22;24016;52.102;11.584;2022-09-09T06:01:07;13.90;99.90
38209;DHT22;24016;52.102;11.584;2022-09-09T06:03:40;13.90;99.90
38209;DHT22;24016;52.102;11.584;2022-09-09T06:06:18;14.00;99.90
38209;DHT22;24016;52.102;11.584;2022-09-09T06:08:46;14.10;99.90
38209;DHT22;24016;52.102;11.584;2022-09-09T06:11:15;14.10;99.90
38209;DHT22;24016;52.102;11.584;2022-09-09T06:13:41;14.20;99.90
38209;DHT22;24016;52.102;11.584;2022-09-09T06:16:09;14.20;99.90
38209;DHT22;24016;52.102;11.584;2022-09-09T06:18:37;14.20;99.90
38209;DHT22;24016;52.102;11.584;2022-09-09T06:21:05;14.30;99.90
38209;DHT22;24016;52.102;11.584;2022-09-09T06:23:32;14.40;99.90
38209;DHT22;24016;52.102;11.584;2022-09-09T06:28:35;14.50;99.90
38209;DHT22;24016;52.102;11.584;2022-09-09T06:31:03;14.60;99.90
38209;DHT22;24016;52.102;11.584;2022-09-09T06:33:35;14.60;99.90
38209;DHT22;24016;52.102;11.584;2022-09-09T06:36:02;14.70;99.90
38209;DHT22;24016;52.102;11.584;2022-09-09T06:38:29;14.70;99.90
38209;DHT22;24016;52.102;11.584;2022-09-09T06:40:56;14.70;99.90
38209;DHT22;24016;52.102;11.584;2022-09-09T06:43:22;14.80;99.90
38209;DHT22;24016;52.102;11.584;2022-09-09T06:45:59;14.80;99.90
38209;DHT22;24016;52.102;11.584;2022-09-09T06:48:25;15.00;99.90
38209;DHT22;24016;52.102;11.584;2022-09-09T06:51:00;15.00;99.90
38209;DHT22;24016;52.102;11.584;2022-09-09T06:53:26;15.10;99.90
38209;DHT22;24016;52.102;11.584;2022-09-09T06:55:52;15.20;99.90
38209;DHT22;24016;52.102;11.584;2022-09-09T06:58:18;15.20;99.90
38209;DHT22;24016;52.102;11.584;2022-09-09T07:00:44;15.20;99.90
38209;DHT22;24016;52.102;11.584;2022-09-09T07:03:10;15.20;99.90
38209;DHT22;24016;52.102;11.584;2022-09-09T07:05:36;15.20;99.90
38209;DHT22;24016;52.102;11.584;2022-09-09T07:08:02;15.30;99.90
38209;DHT22;24016;52.102;11.584;2022-09-09T07:10:27;15.30;99.90
38209;DHT22;24016;52.102;11.584;2022-09-09T07:12:53;15.40;99.90
38209;DHT22;24016;52.102;11.584;2022-09-09T07:15:20;15.60;99.90
38209;DHT22;24016;52.102;11.584;2022-09-09T07:17:46;15.70;99.90
38209;DHT22;24016;52.102;11.584;2022-09-09T07:20:12;15.90;99.90
38209;DHT22;24016;52.102;11.584;2022-09-09T07:22:37;16.10;99.90
38209;DHT22;24016;52.102;11.584;2022-09-09T07:25:04;16.20;99.90
38209;DHT22;24016;52.102;11.584;2022-09-09T07:27:29;16.30;99.90
38209;DHT22;24016;52.102;11.584;2022-09-09T07:29:55;16.40;99.90
38209;DHT22;24016;52.102;11.584;2022-09-09T07:32:21;16.50;99.90
38209;DHT22;24016;52.102;11.584;2022-09-09T07:34:46;16.60;99.90
38209;DHT22;24016;52.102;11.584;2022-09-09T07:37:13;16.70;99.90
38209;DHT22;24016;52.102;11.584;2022-09-09T07:39:39;16.80;99.90
38209;DHT22;24016;52.102;11.584;2022-09-09T07:42:06;16.90;99.90
38209;DHT22;24016;52.102;11.584;2022-09-09T07:44:32;17.10;99.90
38209;DHT22;24016;52.102;11.584;2022-09-09T07:47:01;17.10;99.90
38209;DHT22;24016;52.102;11.584;2022-09-09T07:49:27;17.00;99.90
38209;DHT22;24016;52.102;11.584;2022-09-09T07:51:52;17.00;99.90
38209;DHT22;24016;52.102;11.584;2022-09-09T07:54:19;17.10;99.90
38209;DHT22;24016;52.102;11.584;2022-09-09T07:56:46;17.10;99.90
38209;DHT22;24016;52.102;11.584;2022-09-09T07:59:12;17.20;99.90
38209;DHT22;24016;52.102;11.584;2022-09-09T08:01:43;17.10;99.90
38209;DHT22;24016;52.102;11.584;2022-09-09T08:04:15;17.10;99.90
38209;DHT22;24016;52.102;11.584;2022-09-09T08:06:44;17.20;99.90
38209;DHT22;24016;52.102;11.584;2022-09-09T08:09:10;17.30;99.90
38209;DHT22;24016;52.102;11.584;2022-09-09T08:11:37;17.30;99.90
38209;DHT22;24016;52.102;11.584;2022-09-09T08:14:03;17.40;99.90
38209;DHT22;24016;52.102;11.584;2022-09-09T08:16:32;17.40;99.90
38209;DHT22;24016;52.102;11.584;2022-09-09T08:18:58;17.60;99.90
38209;DHT22;24016;52.102;11.584;2022-09-09T08:21:29;18.10;99.90
38209;DHT22;24016;52.102;11.584;2022-09-09T08:23:57;19.00;99.90
38209;DHT22;24016;52.102;11.584;2022-09-09T08:26:28;20.00;99.90
38209;DHT22;24016;52.102;11.584;2022-09-09T08:28:56;20.80;99.90
38209;DHT22;24016;52.102;11.584;2022-09-09T08:33:58;21.50;99.90
38209;DHT22;24016;52.102;11.584;2022-09-09T08:36:26;21.80;99.90
38209;DHT22;24016;52.102;11.584;2022-09-09T08:38:54;21.60;99.90
38209;DHT22;24016;52.102;11.584;2022-09-09T08:44:39;21.20;99.90
38209;DHT22;24016;52.102;11.584;2022-09-09T08:50:31;21.60;99.90
38209;DHT22;24016;52.102;11.584;2022-09-09T08:55:52;21.70;99.90
38209;DHT22;24016;52.102;11.584;2022-09-09T08:58:32;22.30;99.90
38209;DHT22;24016;52.102;11.584;2022-09-09T09:01:17;22.50;99.90
38209;DHT22;24016;52.102;11.584;2022-09-09T09:03:54;22.90;99.90
38209;DHT22;24016;52.102;11.584;2022-09-09T09:09:02;23.50;99.90
38209;DHT22;24016;52.102;11.584;2022-09-09T09:11:53;23.00;99.90
38209;DHT22;24016;52.102;11.584;2022-09-09T09:14:25;23.20;99.90
38209;DHT22;24016;52.102;11.584;2022-09-09T09:17:10;23.90;99.90
38209;DHT22;24016;52.102;11.584;2022-09-09T09:19:39;23.90;99.90
38209;DHT22;24016;52.102;11.584;2022-09-09T09:22:22;24.00;99.90
38209;DHT22;24016;52.102;11.584;2022-09-09T09:25:17;24.20;99.90
38209;DHT22;24016;52.102;11.584;2022-09-09T09:28:16;23.80;99.90
38209;DHT22;24016;52.102;11.584;2022-09-09T09:31:13;23.90;99.90
38209;DHT22;24016;52.102;11.584;2022-09-09T09:33:49;23.10;99.90
38209;DHT22;24016;52.102;11.584;2022-09-09T09:36:15;23.10;99.90
38209;DHT22;24016;52.102;11.584;2022-09-09T09:38:57;23.30;99.90
38209;DHT22;24016;52.102;11.584;2022-09-09T09:41:40;23.00;99.90
38209;DHT22;24016;52.102;11.584;2022-09-09T09:44:26;23.60;99.90
38209;DHT22;24016;52.102;11.584;2022-09-09T09:46:52;24.10;99.90
38209;DHT22;24016;52.102;11.584;2022-09-09T09:49:18;23.10;99.90
38209;DHT22;24016;52.102;11.584;2022-09-09T09:51:44;23.80;99.90
38209;DHT22;24016;52.102;11.584;2022-09-09T09:56:39;23.50;99.90
38209;DHT22;24016;52.102;11.584;2022-09-09T09:59:18;24.40;99.90
38209;DHT22;24016;52.102;11.584;2022-09-09T10:01:44;24.90;99.90
38209;DHT22;24016;52.102;11.584;2022-09-09T10:04:19;23.90;99.90
38209;DHT22;24016;52.102;11.584;2022-09-09T10:06:46;24.30;99.90
38209;DHT22;24016;52.102;11.584;2022-09-09T10:09:39;24.10;99.90
38209;DHT22;24016;52.102;11.584;2022-09-09T10:12:23;23.40;99.90
38209;DHT22;24016;52.102;11.584;2022-09-09T10:15:02;23.00;99.90
38209;DHT22;24016;52.102;11.584;2022-09-09T10:23:45;23.80;99.90
38209;DHT22;24016;52.102;11.584;2022-09-09T10:29:30;24.40;99.90
38209;DHT22;24016;52.102;11.584;2022-09-09T10:32:17;25.10;99.90
38209;DHT22;24016;52.102;11.584;2022-09-09T10:40:38;25.30;99.90
38209;DHT22;24016;52.102;11.584;2022-09-09T10:43:29;24.60;99.90
38209;DHT22;24016;52.102;11.584;2022-09-09T10:54:32;24.80;99.90
38209;DHT22;24016;52.102;11.584;2022-09-09T10:57:05;24.20;99.90
38209;DHT22;24016;52.102;11.584;2022-09-09T10:59:40;23.80;99.90
38209;DHT22;24016;52.102;11.584;2022-09-09T11:04:56;24.10;99.90
38209;DHT22;24016;52.102;11.584;2022-09-09T11:07:30;23.60;99.90
38209;DHT22;24016;52.102;11.584;2022-09-09T11:10:02;23.80;99.90
38209;DHT22;24016;52.102;11.584;2022-09-09T11:12:30;24.00;99.90
38209;DHT22;24016;52.102;11.584;2022-09-09T11:15:06;23.90;99.90
38209;DHT22;24016;52.102;11.584;2022-09-09T11:17:41;23.70;99.90
38209;DHT22;24016;52.102;11.584;2022-09-09T11:20:11;23.90;99.90
38209;DHT22;24016;52.102;11.584;2022-09-09T11:22:42;23.70;99.90
38209;DHT22;24016;52.102;11.584;2022-09-09T11:25:42;23.50;99.90
38209;DHT22;24016;52.102;11.584;2022-09-09T11:28:20;22.70;99.90
38209;DHT22;24016;52.102;11.584;2022-09-09T11:41:52;27.10;99.90
38209;DHT22;24016;52.102;11.584;2022-09-09T11:44:24;27.70;99.90
38209;DHT22;24016;52.102;11.584;2022-09-09T11:46:51;27.20;99.90
38209;DHT22;24016;52.102;11.584;2022-09-09T11:49:43;27.40;99.90
38209;DHT22;24016;52.102;11.584;2022-09-09T11:52:22;26.40;99.90
38209;DHT22;24016;52.102;11.584;2022-09-09T11:54:49;27.80;99.90
38209;DHT22;24016;52.102;11.584;2022-09-09T11:57:32;28.50;99.90
38209;DHT22;24016;52.102;11.584;2022-09-09T12:00:00;29.10;99.90
38209;DHT22;24016;52.102;11.584;2022-09-09T12:02:27;28.70;99.90
38209;DHT22;24016;52.102;11.584;2022-09-09T12:05:07;28.20;99.90
38209;DHT22;24016;52.102;11.584;2022-09-09T12:07:56;26.90;99.90
38209;DHT22;24016;52.102;11.584;2022-09-09T12:10:30;27.80;99.90
38209;DHT22;24016;52.102;11.584;2022-09-09T12:13:15;28.60;99.90
38209;DHT22;24016;52.102;11.584;2022-09-09T12:18:36;29.30;98.10
38209;DHT22;24016;52.102;11.584;2022-09-09T12:21:17;28.60;99.50
38209;DHT22;24016;52.102;11.584;2022-09-09T12:23:53;29.50;99.90
38209;DHT22;24016;52.102;11.584;2022-09-09T12:34:47;27.50;99.80
38209;DHT22;24016;52.102;11.584;2022-09-09T12:37:36;26.80;99.90
38209;DHT22;24016;52.102;11.584;2022-09-09T12:42:49;25.60;99.90
38209;DHT22;24016;52.102;11.584;2022-09-09T12:45:24;26.10;99.90
38209;DHT22;24016;52.102;11.584;2022-09-09T12:48:09;26.40;99.90
38209;DHT22;24016;52.102;11.584;2022-09-09T12:50:48;26.90;99.90
38209;DHT22;24016;52.102;11.584;2022-09-09T12:53:25;25.90;99.90
38209;DHT22;24016;52.102;11.584;2022-09-09T12:56:36;25.10;99.90
38209;DHT22;24016;52.102;11.584;2022-09-09T12:58:45;24.90;99.90
38209;DHT22;24016;52.102;11.584;2022-09-09T13:01:22;25.00;99.90
38209;DHT22;24016;52.102;11.584;2022-09-09T13:03:48;25.40;99.90
38209;DHT22;24016;52.102;11.584;2022-09-09T13:06:20;27.00;99.90
38209;DHT22;24016;52.102;11.584;2022-09-09T13:08:48;27.20;99.90
38209;DHT22;24016;52.102;11.584;2022-09-09T13:11:17;27.30;99.90
38209;DHT22;24016;52.102;11.584;2022-09-09T13:13:50;27.30;99.90
38209;DHT22;24016;52.102;11.584;2022-09-09T13:18:58;28.10;98.60
38209;DHT22;24016;52.102;11.584;2022-09-09T13:21:38;28.10;98.00
38209;DHT22;24016;52.102;11.584;2022-09-09T13:24:06;26.70;99.90
38209;DHT22;24016;52.102;11.584;2022-09-09T13:26:33;25.70;99.90
38209;DHT22;24016;52.102;11.584;2022-09-09T13:29:19;24.90;99.90
38209;DHT22;24016;52.102;11.584;2022-09-09T13:31:45;24.30;99.90
38209;DHT22;24016;52.102;11.584;2022-09-09T13:34:29;24.70;99.90
38209;DHT22;24016;52.102;11.584;2022-09-09T13:37:05;25.30;99.90
38209;DHT22;24016;52.102;11.584;2022-09-09T13:39:36;25.00;99.90
38209;DHT22;24016;52.102;11.584;2022-09-09T13:42:03;24.60;99.90
38209;DHT22;24016;52.102;11.584;2022-09-09T13:44:31;23.50;99.90
38209;DHT22;24016;52.102;11.584;2022-09-09T13:49:30;22.60;99.90
38209;DHT22;24016;52.102;11.584;2022-09-09T13:52:13;22.50;99.90
38209;DHT22;24016;52.102;11.584;2022-09-09T13:54:40;22.60;99.90
38209;DHT22;24016;52.102;11.584;2022-09-09T13:57:18;22.70;99.90
38209;DHT22;24016;52.102;11.584;2022-09-09T13:59:45;22.60;99.90
38209;DHT22;24016;52.102;11.584;2022-09-09T14:02:11;22.30;99.90
38209;DHT22;24016;52.102;11.584;2022-09-09T14:04:37;22.20;99.90
38209;DHT22;24016;52.102;11.584;2022-09-09T14:07:03;22.40;99.90
38209;DHT22;24016;52.102;11.584;2022-09-09T14:09:28;22.50;99.90
38209;DHT22;24016;52.102;11.584;2022-09-09T14:11:55;22.80;99.90
38209;DHT22;24016;52.102;11.584;2022-09-09T14:14:20;23.00;99.90
38209;DHT22;24016;52.102;11.584;2022-09-09T14:16:46;22.90;99.90
38209;DHT22;24016;52.102;11.584;2022-09-09T14:19:12;22.80;99.90
38209;DHT22;24016;52.102;11.584;2022-09-09T14:21:38;23.10;99.90
38209;DHT22;24016;52.102;11.584;2022-09-09T14:24:04;23.60;99.90
38209;DHT22;24016;52.102;11.584;2022-09-09T14:26:30;23.50;99.90
38209;DHT22;24016;52.102;11.584;2022-09-09T14:28:55;23.80;99.90
38209;DHT22;24016;52.102;11.584;2022-09-09T14:31:22;23.80;99.90
38209;DHT22;24016;52.102;11.584;2022-09-09T14:33:47;23.90;99.90
38209;DHT22;24016;52.102;11.584;2022-09-09T14:36:13;23.70;99.90
38209;DHT22;24016;52.102;11.584;2022-09-09T14:38:39;23.50;99.90
38209;DHT22;24016;52.102;11.584;2022-09-09T14:41:05;22.80;99.90
38209;DHT22;24016;52.102;11.584;2022-09-09T14:43:31;22.20;99.90
38209;DHT22;24016;52.102;11.584;2022-09-09T14:46:03;21.80;99.90
38209;DHT22;24016;52.102;11.584;2022-09-09T14:48:31;21.60;99.90
38209;DHT22;24016;52.102;11.584;2022-09-09T14:50:56;21.40;99.90
38209;DHT22;24016;52.102;11.584;2022-09-09T14:53:22;21.20;99.90
38209;DHT22;24016;52.102;11.584;2022-09-09T14:55:47;21.20;99.90
38209;DHT22;24016;52.102;11.584;2022-09-09T14:58:13;21.10;99.90
38209;DHT22;24016;52.102;11.584;2022-09-09T15:00:39;21.00;99.90
38209;DHT22;24016;52.102;11.584;2022-09-09T15:03:04;21.00;99.90
38209;DHT22;24016;52.102;11.584;2022-09-09T15:05:30;21.10;99.90
38209;DHT22;24016;52.102;11.584;2022-09-09T15:07:57;21.30;99.90
38209;DHT22;24016;52.102;11.584;2022-09-09T15:10:23;21.40;99.90
38209;DHT22;24016;52.102;11.584;2022-09-09T15:12:49;21.40;99.90
38209;DHT22;24016;52.102;11.584;2022-09-09T15:15:15;21.40;99.90
38209;DHT22;24016;52.102;11.584;2022-09-09T15:17:40;21.40;99.90
38209;DHT22;24016;52.102;11.584;2022-09-09T15:20:06;21.30;99.90
38209;DHT22;24016;52.102;11.584;2022-09-09T15:22:32;21.30;99.90
38209;DHT22;24016;52.102;11.584;2022-09-09T15:24:59;21.30;99.90
38209;DHT22;24016;52.102;11.584;2022-09-09T15:27:24;21.40;99.90
38209;DHT22;24016;52.102;11.584;2022-09-09T15:29:50;21.50;99.90
38209;DHT22;24016;52.102;11.584;2022-09-09T15:32:17;21.50;99.90
38209;DHT22;24016;52.102;11.584;2022-09-09T15:34:42;21.60;99.90
38209;DHT22;24016;52.102;11.584;2022-09-09T15:37:10;21.80;99.90
38209;DHT22;24016;52.102;11.584;2022-09-09T15:39:38;21.80;99.90
38209;DHT22;24016;52.102;11.584;2022-09-09T15:42:04;21.80;99.90
38209;DHT22;24016;52.102;11.584;2022-09-09T15:44:37;21.80;99.90
38209;DHT22;24016;52.102;11.584;2022-09-09T15:47:03;21.80;99.90
38209;DHT22;24016;52.102;11.584;2022-09-09T15:49:28;21.80;99.90
38209;DHT22;24016;52.102;11.584;2022-09-09T15:51:56;21.70;99.90
38209;DHT22;24016;52.102;11.584;2022-09-09T15:54:23;21.60;99.90
38209;DHT22;24016;52.102;11.584;2022-09-09T15:56:57;21.40;99.90
38209;DHT22;24016;52.102;11.584;2022-09-09T15:59:24;21.30;99.90
38209;DHT22;24016;52.102;11.584;2022-09-09T16:01:49;21.30;99.90
38209;DHT22;24016;52.102;11.584;2022-09-09T16:04:17;21.30;99.90
38209;DHT22;24016;52.102;11.584;2022-09-09T16:06:49;21.30;99.90
38209;DHT22;24016;52.102;11.584;2022-09-09T16:09:15;21.30;99.90
38209;DHT22;24016;52.102;11.584;2022-09-09T16:11:41;21.40;99.90
38209;DHT22;24016;52.102;11.584;2022-09-09T16:14:06;21.30;99.90
38209;DHT22;24016;52.102;11.584;2022-09-09T16:16:32;21.30;99.90
38209;DHT22;24016;52.102;11.584;2022-09-09T16:19:04;21.20;99.90
38209;DHT22;24016;52.102;11.584;2022-09-09T16:21:33;21.10;99.90
38209;DHT22;24016;52.102;11.584;2022-09-09T16:24:00;21.10;99.90
38209;DHT22;24016;52.102;11.584;2022-09-09T16:26:26;21.00;99.90
38209;DHT22;24016;52.102;11.584;2022-09-09T16:28:53;20.90;99.90
38209;DHT22;24016;52.102;11.584;2022-09-09T16:31:22;20.80;99.90
38209;DHT22;24016;52.102;11.584;2022-09-09T16:33:48;20.60;99.90
38209;DHT22;24016;52.102;11.584;2022-09-09T16:36:20;20.40;99.90
38209;DHT22;24016;52.102;11.584;2022-09-09T16:38:46;20.30;99.90
38209;DHT22;24016;52.102;11.584;2022-09-09T16:41:13;20.20;99.90
38209;DHT22;24016;52.102;11.584;2022-09-09T16:43:40;20.00;99.90
38209;DHT22;24016;52.102;11.584;2022-09-09T16:46:17;19.90;99.90
38209;DHT22;24016;52.102;11.584;2022-09-09T16:48:44;19.70;99.90
38209;DHT22;24016;52.102;11.584;2022-09-09T16:51:22;19.60;99.90
38209;DHT22;24016;52.102;11.584;2022-09-09T16:53:51;19.60;99.90
38209;DHT22;24016;52.102;11.584;2022-09-09T16:56:20;19.50;99.90
38209;DHT22;24016;52.102;11.584;2022-09-09T16:58:50;19.30;99.90
38209;DHT22;24016;52.102;11.584;2022-09-09T17:01:16;19.30;99.90
38209;DHT22;24016;52.102;11.584;2022-09-09T17:03:42;19.10;99.90
38209;DHT22;24016;52.102;11.584;2022-09-09T17:06:11;19.00;99.90
38209;DHT22;24016;52.102;11.584;2022-09-09T17:08:38;18.90;99.90
38209;DHT22;24016;52.102;11.584;2022-09-09T17:11:11;18.90;99.90
38209;DHT22;24016;52.102;11.584;2022-09-09T17:13:39;18.80;99.90
38209;DHT22;24016;52.102;11.584;2022-09-09T17:16:05;18.80;99.90
38209;DHT22;24016;52.102;11.584;2022-09-09T17:18:30;18.80;99.90
38209;DHT22;24016;52.102;11.584;2022-09-09T17:21:05;18.70;99.90
38209;DHT22;24016;52.102;11.584;2022-09-09T17:23:32;18.70;99.90
38209;DHT22;24016;52.102;11.584;2022-09-09T17:25:59;18.70;99.90
38209;DHT22;24016;52.102;11.584;2022-09-09T17:28:25;18.70;99.90
38209;DHT22;24016;52.102;11.584;2022-09-09T17:30:59;18.70;99.90